Huvudsida
METAR-TAF:

METAR-TAF

Flygplatser :

Rørviks flygplats. Ryum

Rørvik, Norge

latitud: 64-50N, longitud: 011-09E, höjd: 4 m

Aktuellt väderrapport

Denna rapport gjordes för 5 timmar och 24 minuter sedan, klockan 07:50 UTC
Vind 8 kt från ost/sydost, varierande mellan ost/nordost och sydost
Temperatur 18°C
Fuktighet 73%
Tryck 999 hPa
Sikt 10 km eller mer
Inga moln under 1 500 m eller inga cumulonimbus

METAR: ENRM 170750Z 11008KT 060V140 CAVOK 18/13 Q0999

Tid: 15:14 (13:14 UTC)


TAF: saknas

Aktuella väderrapporter och prognoser från 4000 flygplatser (METAR- och TAF-rapporter).

De tillgängliga stationerna syns som gula och röda prickar på kartan.

För musen över prickarna för att se namnen på stationerna.

Klicka sedan för att få väderrapporter och prognoser.

För att ändra kartan: Klicka på de gröna knapparna med ett svart kors på för att zooma in; den gröna knappen med ett streck på för att zooma ut; eller på de gröna pilarna för angränsande kartor.


METAR-TAF: